world map with PSO marked

PSO - Airport

This information may not be accurate or current and is not valid for navigation or flight planning. No warranty of fitness for any purpose is made or implied.

flag of Nariñoflag of Colombia

Donate via PayPal

Additional information is available on the NEW Great Circle Mapper

Location
City:  San Juan de Pasto, Nariño, Colombia
Near (Alt.):Pasto, Chachagüí
Name:Antonio Nariño Airport
ICAO / IATA:SKPS / PSO

Details
Type:Airport (Aerodrome, Airfield)
Latitude:1°23'46"N (1.396247)
Longitude:77°17'29"W (-77.291477)
Datum:WGS 1984
Elevation:5951 ft (1814 m)
Runways:1
Longest:7585 × 130 ft (2312 × 39.5 m)

Time
Timezone:UTC+29:08 (DST+31:08)
Local Time:

Weather
METAR:SKPS  162000Z 32003KT 9999 SCT020 OVC080 20/17 A3007

Related Locations
Nearby:
Farthest:WIJB: 12414 mi / 19979 km
Muara Bungo [Muara Bungo Airport], JA, ID

Find:

   beyond  
but within

Other Information
Maps:
Sources:

  


 


Great Circle Mapper   Great Circle Mapper
Great Circle Mapper FAQ   Great Circle Mapper FAQ
  Karl's Home Page
KLS²   KLS² Home
   GC on Facebook
Airlines of the World   Airlines of the World
Donate via PayPal


Copyright © 2004-2018, Karl L. Swartz. All rights reserved.
All trademarks mentioned herein belong to their respective owners.

Please see credits for attribution and copyright information.

Karl Swartz <karl@kls2.com>
  Powered by FreeBSD
Valid HTML 4.01!
Labeled with ICRA
hCard Microformat
Geo Microformat